createdAt,value
2024-04-21T00:02:02.114Z,7.11
2024-04-21T00:04:29.849Z,7.10
2024-04-21T00:06:57.151Z,7.13
2024-04-21T00:09:24.830Z,7.07
2024-04-21T00:11:52.194Z,7.06
2024-04-21T00:14:19.759Z,7.07
2024-04-21T00:16:47.061Z,7.06
2024-04-21T00:19:14.898Z,7.03
2024-04-21T00:21:42.343Z,7.04
2024-04-21T00:24:10.033Z,7.03
2024-04-21T00:26:37.317Z,7.05
2024-04-21T00:29:06.405Z,7.05
2024-04-21T00:31:33.744Z,7.01
2024-04-21T00:34:01.596Z,6.99
2024-04-21T00:36:28.865Z,6.93
2024-04-21T00:38:56.618Z,6.87
2024-04-21T00:41:25.114Z,6.88
2024-04-21T00:43:52.878Z,6.90
2024-04-21T00:46:20.719Z,6.87
2024-04-21T00:48:49.660Z,6.82
2024-04-21T00:51:20.909Z,6.77
2024-04-21T00:53:50.835Z,6.80
2024-04-21T00:56:23.438Z,6.83
2024-04-21T00:58:53.936Z,6.85
2024-04-21T01:01:22.747Z,6.80
2024-04-21T01:03:52.488Z,6.73
2024-04-21T01:06:20.526Z,6.76
2024-04-21T01:08:48.618Z,6.74
2024-04-21T01:11:17.776Z,6.73
2024-04-21T01:13:46.021Z,6.65
2024-04-21T01:16:15.196Z,6.61
2024-04-21T01:18:42.912Z,6.54
2024-04-21T01:21:10.131Z,6.52
2024-04-21T01:23:39.041Z,6.51
2024-04-21T01:26:06.390Z,6.51
2024-04-21T01:28:34.036Z,6.43
2024-04-21T01:31:01.522Z,6.40
2024-04-21T01:33:29.097Z,6.39
2024-04-21T01:35:56.392Z,6.35
2024-04-21T01:38:23.985Z,6.29
2024-04-21T01:40:51.243Z,6.31
2024-04-21T01:43:18.954Z,6.32
2024-04-21T01:45:46.195Z,6.27
2024-04-21T01:48:13.711Z,6.24
2024-04-21T01:50:40.899Z,6.19
2024-04-21T01:53:08.381Z,6.15
2024-04-21T01:55:35.667Z,6.06
2024-04-21T01:58:03.671Z,6.03
2024-04-21T02:00:30.943Z,6.04
2024-04-21T02:02:58.451Z,6.01
2024-04-21T02:05:26.852Z,6.02
2024-04-21T02:07:54.373Z,5.98
2024-04-21T02:10:22.419Z,5.92
2024-04-21T02:12:50.207Z,5.86
2024-04-21T02:15:17.341Z,5.78
2024-04-21T02:17:44.895Z,5.77
2024-04-21T02:20:12.130Z,5.77
2024-04-21T02:22:39.731Z,5.79
2024-04-21T02:25:07.360Z,5.71
2024-04-21T02:27:34.952Z,5.67
2024-04-21T02:30:02.444Z,5.66
2024-04-21T02:32:30.161Z,5.66
2024-04-21T02:34:57.402Z,5.70
2024-04-21T02:37:25.682Z,5.62
2024-04-21T02:39:52.989Z,5.51
2024-04-21T02:42:20.529Z,5.49
2024-04-21T02:44:47.744Z,5.54
2024-04-21T02:47:15.428Z,5.61
2024-04-21T02:49:42.637Z,5.61
2024-04-21T02:52:10.233Z,5.62
2024-04-21T02:54:37.454Z,5.57
2024-04-21T02:57:06.229Z,5.48
2024-04-21T02:59:33.396Z,5.47
2024-04-21T03:02:01.016Z,5.49
2024-04-21T03:04:28.411Z,5.43
2024-04-21T03:06:56.093Z,5.42
2024-04-21T03:09:23.394Z,5.43
2024-04-21T03:11:51.004Z,5.44
2024-04-21T03:14:18.469Z,5.46
2024-04-21T03:16:48.080Z,5.43
2024-04-21T03:19:15.345Z,5.39
2024-04-21T03:21:42.916Z,5.36
2024-04-21T03:24:10.127Z,5.34
2024-04-21T03:26:38.272Z,5.28
2024-04-21T03:29:05.487Z,5.25
2024-04-21T03:31:33.153Z,5.18
2024-04-21T03:34:00.476Z,5.10
2024-04-21T03:36:28.231Z,5.10
2024-04-21T03:38:55.383Z,5.14
2024-04-21T03:41:22.982Z,5.13
2024-04-21T03:43:50.584Z,5.14
2024-04-21T03:46:19.902Z,5.07
2024-04-21T03:48:48.918Z,4.91
2024-04-21T03:51:16.460Z,4.93
2024-04-21T03:53:43.671Z,4.92
2024-04-21T03:56:11.201Z,4.94
2024-04-21T03:58:38.440Z,4.94
2024-04-21T04:01:06.061Z,5.01
2024-04-21T04:03:33.604Z,4.88
2024-04-21T04:06:01.396Z,4.75
2024-04-21T04:08:28.777Z,4.83
2024-04-21T04:10:56.361Z,4.91
2024-04-21T04:13:23.672Z,4.98
2024-04-21T04:15:51.218Z,4.90
2024-04-21T04:18:18.476Z,4.87
2024-04-21T04:20:47.234Z,4.85
2024-04-21T04:23:14.505Z,4.86
2024-04-21T04:25:43.936Z,4.86
2024-04-21T04:28:11.211Z,4.85
2024-04-21T04:30:38.945Z,4.81
2024-04-21T04:33:06.226Z,4.77
2024-04-21T04:35:33.766Z,4.68
2024-04-21T04:38:00.922Z,4.67
2024-04-21T04:40:28.648Z,4.63
2024-04-21T04:42:56.794Z,4.65
2024-04-21T04:45:24.451Z,4.71
2024-04-21T04:47:51.803Z,4.75
2024-04-21T04:50:19.319Z,4.73
2024-04-21T04:52:46.505Z,4.76
2024-04-21T04:55:14.138Z,4.76
2024-04-21T04:57:41.370Z,4.78
2024-04-21T05:00:10.066Z,4.71
2024-04-21T05:02:37.332Z,4.69
2024-04-21T05:05:06.373Z,4.74
2024-04-21T05:07:33.762Z,4.76
2024-04-21T05:10:01.596Z,4.75
2024-04-21T05:12:28.948Z,4.73
2024-04-21T05:14:56.464Z,4.61
2024-04-21T05:17:23.938Z,4.56
2024-04-21T05:19:51.443Z,4.56
2024-04-21T05:22:18.659Z,4.60
2024-04-21T05:24:46.423Z,4.60
2024-04-21T05:27:14.943Z,4.60
2024-04-21T05:29:42.517Z,4.64
2024-04-21T05:32:09.749Z,4.62
2024-04-21T05:34:38.144Z,4.63
2024-04-21T05:37:05.365Z,4.64
2024-04-21T05:39:32.951Z,4.60
2024-04-21T05:42:00.098Z,4.60
2024-04-21T05:44:29.152Z,4.62
2024-04-21T05:46:56.351Z,4.57
2024-04-21T05:49:23.883Z,4.55
2024-04-21T05:51:51.101Z,4.58
2024-04-21T05:54:18.776Z,4.56
2024-04-21T05:56:45.899Z,4.59
2024-04-21T05:59:13.416Z,4.61
2024-04-21T06:01:40.629Z,4.62
2024-04-21T06:04:08.403Z,4.58
2024-04-21T06:06:35.537Z,4.63
2024-04-21T06:09:03.094Z,4.66
2024-04-21T06:11:30.407Z,4.69
2024-04-21T06:13:57.976Z,4.73
2024-04-21T06:16:25.336Z,4.62
2024-04-21T06:18:53.172Z,4.63
2024-04-21T06:21:20.463Z,4.60
2024-04-21T06:23:48.037Z,4.70
2024-04-21T06:26:15.243Z,4.78
2024-04-21T06:28:42.777Z,4.84
2024-04-21T06:31:10.152Z,4.91
2024-04-21T06:33:37.772Z,5.00
2024-04-21T06:36:05.599Z,4.99
2024-04-21T06:38:33.155Z,5.00
2024-04-21T06:41:00.487Z,5.02
2024-04-21T06:43:28.323Z,5.09
2024-04-21T06:45:55.553Z,5.10
2024-04-21T06:48:23.444Z,5.09
2024-04-21T06:50:50.845Z,5.10
2024-04-21T06:53:21.058Z,5.15
2024-04-21T06:55:49.264Z,5.15
2024-04-21T06:58:18.860Z,5.24
2024-04-21T07:00:46.214Z,5.23
2024-04-21T07:03:13.947Z,5.25
2024-04-21T07:05:41.276Z,5.24
2024-04-21T07:08:09.028Z,5.26
2024-04-21T07:10:36.444Z,5.28
2024-04-21T07:13:04.240Z,5.31
2024-04-21T07:15:31.552Z,5.32
2024-04-21T07:17:59.162Z,5.35
2024-04-21T07:20:26.340Z,5.38
2024-04-21T07:22:53.989Z,5.34
2024-04-21T07:25:25.333Z,5.33
2024-04-21T07:27:54.090Z,5.37
2024-04-21T07:30:21.630Z,5.44
2024-04-21T07:32:49.426Z,5.49
2024-04-21T07:35:17.335Z,5.50
2024-04-21T07:37:45.142Z,5.53
2024-04-21T07:40:15.452Z,5.54
2024-04-21T07:42:44.176Z,5.51
2024-04-21T07:45:11.273Z,5.49
2024-04-21T07:47:39.341Z,5.46
2024-04-21T07:50:07.147Z,5.45
2024-04-21T07:52:34.943Z,5.46
2024-04-21T07:55:02.575Z,5.44
2024-04-21T07:57:30.268Z,5.50
2024-04-21T07:59:57.491Z,5.55
2024-04-21T08:02:28.350Z,5.56
2024-04-21T08:04:58.664Z,5.62
2024-04-21T08:07:26.483Z,5.67
2024-04-21T08:09:54.204Z,5.71
2024-04-21T08:12:21.829Z,5.78
2024-04-21T08:14:49.066Z,5.87
2024-04-21T08:17:16.579Z,5.95
2024-04-21T08:19:43.912Z,5.96
2024-04-21T08:22:11.486Z,5.99
2024-04-21T08:24:38.628Z,6.04
2024-04-21T08:27:07.026Z,6.10
2024-04-21T08:29:34.343Z,6.04
2024-04-21T08:32:01.940Z,5.98
2024-04-21T08:34:29.477Z,5.99
2024-04-21T08:36:56.997Z,6.03
2024-04-21T08:39:24.219Z,6.02
2024-04-21T08:41:53.237Z,6.04
2024-04-21T08:44:20.408Z,6.03
2024-04-21T08:46:53.748Z,6.07
2024-04-21T08:49:23.258Z,6.13
2024-04-21T08:51:52.106Z,6.18
2024-04-21T08:54:19.422Z,6.16
2024-04-21T08:56:53.014Z,6.11
2024-04-21T08:59:25.347Z,6.20
2024-04-21T09:01:53.275Z,6.25
2024-04-21T09:04:21.608Z,6.30
2024-04-21T09:06:51.882Z,6.39
2024-04-21T09:09:21.295Z,6.48
2024-04-21T09:11:49.002Z,6.49
2024-04-21T09:14:16.303Z,6.48
2024-04-21T09:16:43.879Z,6.50
2024-04-21T09:19:11.030Z,6.43
2024-04-21T09:21:38.580Z,6.55
2024-04-21T09:24:06.369Z,6.62
2024-04-21T09:26:35.213Z,6.76
2024-04-21T09:29:03.518Z,6.89
2024-04-21T09:31:31.828Z,7.00
2024-04-21T09:33:59.075Z,7.11
2024-04-21T09:36:26.942Z,7.32
2024-04-21T09:38:56.669Z,7.45
2024-04-21T09:41:27.853Z,7.56
2024-04-21T09:43:56.514Z,7.57
2024-04-21T09:46:26.491Z,7.55
2024-04-21T09:48:56.595Z,7.52
2024-04-21T09:51:27.129Z,7.55
2024-04-21T09:53:56.189Z,7.56
2024-04-21T09:56:41.589Z,7.53
2024-04-21T09:59:14.331Z,7.53
2024-04-21T10:01:44.944Z,7.59
2024-04-21T10:04:20.225Z,7.72
2024-04-21T10:06:49.842Z,7.73
2024-04-21T10:09:20.685Z,7.67
2024-04-21T10:11:48.525Z,7.74
2024-04-21T10:14:16.805Z,7.79
2024-04-21T10:16:45.141Z,7.84
2024-04-21T10:19:13.671Z,7.89
2024-04-21T10:21:41.724Z,7.84
2024-04-21T10:24:08.911Z,7.81
2024-04-21T10:26:36.651Z,7.81
2024-04-21T10:29:12.142Z,7.87
2024-04-21T10:31:40.048Z,7.75
2024-04-21T10:34:11.248Z,7.79
2024-04-21T10:36:45.584Z,7.84
2024-04-21T10:39:23.879Z,7.84
2024-04-21T10:42:00.288Z,7.80
2024-04-21T10:44:28.306Z,7.75
2024-04-21T10:46:55.816Z,7.75
2024-04-21T10:49:23.109Z,7.80
2024-04-21T10:51:51.274Z,7.84
2024-04-21T10:54:19.107Z,7.93
2024-04-21T10:56:47.237Z,8.05
2024-04-21T10:59:14.454Z,8.06
2024-04-21T11:01:42.316Z,7.94
2024-04-21T11:04:09.676Z,7.90
2024-04-21T11:06:37.410Z,7.84
2024-04-21T11:09:04.702Z,7.87
2024-04-21T11:11:33.068Z,7.82
2024-04-21T11:14:00.328Z,7.83
2024-04-21T11:16:31.579Z,7.87
2024-04-21T11:18:59.289Z,7.83
2024-04-21T11:21:27.054Z,7.76
2024-04-21T11:23:55.688Z,7.69
2024-04-21T11:26:23.883Z,7.60
2024-04-21T11:28:51.065Z,7.65
2024-04-21T11:31:18.746Z,7.70
2024-04-21T11:33:46.067Z,7.67
2024-04-21T11:36:21.796Z,7.62
2024-04-21T11:38:50.767Z,7.56
2024-04-21T11:41:18.450Z,7.50
2024-04-21T11:43:50.792Z,7.46
2024-04-21T11:46:18.529Z,7.48
2024-04-21T11:48:55.237Z,7.49
2024-04-21T11:51:23.858Z,7.52
2024-04-21T11:53:51.219Z,7.55
2024-04-21T11:56:18.907Z,7.48
2024-04-21T11:58:46.648Z,7.44
2024-04-21T12:01:19.046Z,7.40
2024-04-21T12:03:47.122Z,7.43
2024-04-21T12:06:15.524Z,7.37
2024-04-21T12:08:42.676Z,7.32
2024-04-21T12:11:11.703Z,7.44
2024-04-21T12:13:40.379Z,7.55
2024-04-21T12:16:08.161Z,7.51
2024-04-21T12:18:35.707Z,7.46
2024-04-21T12:21:03.491Z,7.44
2024-04-21T12:23:30.623Z,7.43
2024-04-21T12:25:58.182Z,7.46
2024-04-21T12:28:25.460Z,7.50
2024-04-21T12:30:53.133Z,7.52
2024-04-21T12:33:20.496Z,7.54
2024-04-21T12:35:47.999Z,7.54
2024-04-21T12:38:15.177Z,7.55
2024-04-21T12:40:44.116Z,7.57
2024-04-21T12:43:11.783Z,7.56
2024-04-21T12:45:39.384Z,7.56
2024-04-21T12:48:07.218Z,7.49
2024-04-21T12:50:35.302Z,7.44
2024-04-21T12:53:02.644Z,7.45
2024-04-21T12:55:30.420Z,7.50
2024-04-21T12:57:57.793Z,7.52
2024-04-21T13:00:25.379Z,7.55
2024-04-21T13:02:52.860Z,7.57
2024-04-21T13:05:20.554Z,7.56
2024-04-21T13:07:47.760Z,7.62
2024-04-21T13:10:15.367Z,7.67
2024-04-21T13:12:42.705Z,7.77
2024-04-21T13:15:10.261Z,7.82
2024-04-21T13:17:37.674Z,7.82
2024-04-21T13:20:05.997Z,7.85
2024-04-21T13:22:35.128Z,7.87
2024-04-21T13:25:02.786Z,7.82
2024-04-21T13:27:30.123Z,7.80
2024-04-21T13:29:57.631Z,7.78
2024-04-21T13:32:24.904Z,7.79
2024-04-21T13:34:56.304Z,7.77
2024-04-21T13:37:25.136Z,7.71
2024-04-21T13:39:52.672Z,7.69
2024-04-21T13:42:19.827Z,7.67
2024-04-21T13:44:47.451Z,7.66
2024-04-21T13:47:14.690Z,7.67
2024-04-21T13:49:42.437Z,7.70
2024-04-21T13:52:09.744Z,7.71
2024-04-21T13:54:38.514Z,7.74
2024-04-21T13:57:06.045Z,7.74
2024-04-21T13:59:33.605Z,7.71
2024-04-21T14:02:02.651Z,7.72
2024-04-21T14:04:30.253Z,7.73
2024-04-21T14:06:57.484Z,7.73
2024-04-21T14:09:26.249Z,7.71
2024-04-21T14:11:53.507Z,7.68
2024-04-21T14:14:21.050Z,7.62
2024-04-21T14:16:48.405Z,7.56
2024-04-21T14:19:16.374Z,7.56
2024-04-21T14:21:43.623Z,7.55
2024-04-21T14:24:11.319Z,7.57
2024-04-21T14:26:38.676Z,7.57
2024-04-21T14:29:06.154Z,7.56
2024-04-21T14:31:33.433Z,7.57
2024-04-21T14:34:04.532Z,7.57
2024-04-21T14:36:34.821Z,7.58
2024-04-21T14:39:03.043Z,7.55
2024-04-21T14:41:30.317Z,7.53
2024-04-21T14:43:57.958Z,7.50
2024-04-21T14:46:25.216Z,7.49
2024-04-21T14:48:52.824Z,7.49
2024-04-21T14:51:20.156Z,7.50
2024-04-21T14:53:49.262Z,7.43
2024-04-21T14:56:21.489Z,7.35
2024-04-21T14:58:49.997Z,7.27
2024-04-21T15:01:17.442Z,7.25
2024-04-21T15:03:45.138Z,7.21
2024-04-21T15:06:15.338Z,7.23
2024-04-21T15:08:43.122Z,7.23
2024-04-21T15:11:10.776Z,7.23
2024-04-21T15:13:38.386Z,7.22
2024-04-21T15:16:06.688Z,7.25
2024-04-21T15:18:34.573Z,7.23
2024-04-21T15:21:01.645Z,7.14
2024-04-21T15:23:29.199Z,7.15
2024-04-21T15:25:56.459Z,7.16
2024-04-21T15:28:24.124Z,7.17
2024-04-21T15:30:51.235Z,7.15
2024-04-21T15:33:18.905Z,7.07
2024-04-21T15:35:46.098Z,7.06
2024-04-21T15:38:13.713Z,7.08
2024-04-21T15:40:41.005Z,7.11
2024-04-21T15:43:08.736Z,7.12
2024-04-21T15:45:36.121Z,7.13
2024-04-21T15:48:04.405Z,7.12
2024-04-21T15:50:31.744Z,7.12
2024-04-21T15:52:59.309Z,7.11
2024-04-21T15:55:29.376Z,7.11
2024-04-21T15:57:57.252Z,7.09
2024-04-21T16:00:24.593Z,7.07
2024-04-21T16:02:52.229Z,7.06
2024-04-21T16:05:19.364Z,7.04
2024-04-21T16:07:46.910Z,7.07
2024-04-21T16:10:14.111Z,7.05
2024-04-21T16:12:41.773Z,7.02
2024-04-21T16:15:09.543Z,7.00
2024-04-21T16:17:37.606Z,6.98
2024-04-21T16:20:05.627Z,6.98
2024-04-21T16:22:33.498Z,6.98
2024-04-21T16:25:00.761Z,6.97
2024-04-21T16:27:28.471Z,6.95
2024-04-21T16:29:55.658Z,6.95
2024-04-21T16:32:23.556Z,6.89
2024-04-21T16:34:51.186Z,6.88
2024-04-21T16:37:19.428Z,6.88
2024-04-21T16:39:47.921Z,6.86
2024-04-21T16:42:16.177Z,6.85
2024-04-21T16:44:43.691Z,6.78
2024-04-21T16:47:17.495Z,6.72
2024-04-21T16:49:45.102Z,6.70
2024-04-21T16:52:13.601Z,6.70
2024-04-21T16:54:41.413Z,6.65
2024-04-21T16:57:25.876Z,6.65
2024-04-21T16:59:53.650Z,6.64
2024-04-21T17:02:21.667Z,6.64
2024-04-21T17:04:49.560Z,6.63
2024-04-21T17:07:18.233Z,6.62
2024-04-21T17:09:48.879Z,6.61
2024-04-21T17:12:22.753Z,6.61
2024-04-21T17:14:49.945Z,6.54
2024-04-21T17:17:20.048Z,6.49
2024-04-21T17:19:47.605Z,6.47
2024-04-21T17:22:15.170Z,6.47
2024-04-21T17:24:44.060Z,6.45
2024-04-21T17:27:13.816Z,6.38
2024-04-21T17:29:41.098Z,6.33
2024-04-21T17:32:09.145Z,6.32
2024-04-21T17:34:37.035Z,6.32
2024-04-21T17:37:04.797Z,6.35
2024-04-21T17:39:32.016Z,6.31
2024-04-21T17:41:59.501Z,6.27
2024-04-21T17:44:29.480Z,6.21
2024-04-21T17:46:57.268Z,6.18
2024-04-21T17:49:24.468Z,6.17
2024-04-21T17:51:52.137Z,6.12
2024-04-21T17:54:21.962Z,6.13
2024-04-21T17:56:51.014Z,6.09
2024-04-21T17:59:18.489Z,6.03
2024-04-21T18:01:47.062Z,6.02
2024-04-21T18:04:14.858Z,5.95
2024-04-21T18:06:42.786Z,5.89
2024-04-21T18:09:10.683Z,5.86
2024-04-21T18:11:40.552Z,5.83
2024-04-21T18:14:08.923Z,5.83
2024-04-21T18:16:36.642Z,5.84
2024-04-21T18:19:04.267Z,5.83
2024-04-21T18:21:31.839Z,5.79
2024-04-21T18:23:59.035Z,5.83
2024-04-21T18:26:26.711Z,5.82
2024-04-21T18:28:53.810Z,5.85
2024-04-21T18:31:21.388Z,5.85
2024-04-21T18:33:48.562Z,5.78
2024-04-21T18:36:16.105Z,5.71
2024-04-21T18:38:44.119Z,5.63
2024-04-21T18:41:11.700Z,5.56
2024-04-21T18:43:38.876Z,5.56
2024-04-21T18:46:06.598Z,5.59
2024-04-21T18:48:34.409Z,5.62
2024-04-21T18:51:05.617Z,5.60
2024-04-21T18:53:33.089Z,5.60
2024-04-21T18:56:05.341Z,5.62
2024-04-21T18:58:33.180Z,5.67
2024-04-21T19:01:12.952Z,5.69
2024-04-21T19:03:40.749Z,5.65
2024-04-21T19:06:12.523Z,5.65
2024-04-21T19:08:40.363Z,5.70
2024-04-21T19:11:12.176Z,5.73
2024-04-21T19:13:43.721Z,5.76
2024-04-21T19:16:13.035Z,5.79
2024-04-21T19:18:41.177Z,5.85
2024-04-21T19:21:09.708Z,5.84
2024-04-21T19:23:38.564Z,5.85
2024-04-21T19:26:06.160Z,5.84
2024-04-21T19:28:35.800Z,5.86
2024-04-21T19:31:03.593Z,5.88
2024-04-21T19:33:30.801Z,5.89
2024-04-21T19:35:58.297Z,5.89
2024-04-21T19:38:25.446Z,5.91
2024-04-21T19:40:53.830Z,5.91
2024-04-21T19:43:21.077Z,5.92
2024-04-21T19:45:48.695Z,5.89
2024-04-21T19:48:15.803Z,5.86
2024-04-21T19:50:43.403Z,5.88
2024-04-21T19:53:11.739Z,5.87
2024-04-21T19:55:39.670Z,5.89
2024-04-21T19:58:08.396Z,5.90
2024-04-21T20:00:35.968Z,5.92
2024-04-21T20:03:06.264Z,5.92
2024-04-21T20:05:38.784Z,5.93
2024-04-21T20:08:08.456Z,5.92
2024-04-21T20:10:36.491Z,5.91
2024-04-21T20:13:04.002Z,5.88
2024-04-21T20:15:50.119Z,5.90
2024-04-21T20:18:36.373Z,5.88
2024-04-21T20:21:05.776Z,5.91
2024-04-21T20:23:34.248Z,5.91
2024-04-21T20:26:04.960Z,5.93
2024-04-21T20:28:32.391Z,5.96
2024-04-21T20:31:00.042Z,5.97
2024-04-21T20:33:27.447Z,5.95
2024-04-21T20:35:55.027Z,5.97
2024-04-21T20:38:22.133Z,5.96
2024-04-21T20:40:49.678Z,5.96
2024-04-21T20:43:16.950Z,5.95
2024-04-21T20:45:44.564Z,5.97
2024-04-21T20:48:12.062Z,5.96
2024-04-21T20:50:39.645Z,5.98
2024-04-21T20:53:06.881Z,6.01
2024-04-21T20:55:34.528Z,6.00
2024-04-21T20:58:01.808Z,6.01
2024-04-21T21:00:29.436Z,6.01
2024-04-21T21:02:56.626Z,6.02
2024-04-21T21:05:24.171Z,6.02
2024-04-21T21:07:51.354Z,6.02
2024-04-21T21:10:18.882Z,6.07
2024-04-21T21:12:47.264Z,6.07
2024-04-21T21:15:15.091Z,6.07
2024-04-21T21:17:42.499Z,6.08
2024-04-21T21:20:10.973Z,6.08
2024-04-21T21:22:39.722Z,6.08
2024-04-21T21:25:07.450Z,6.07
2024-04-21T21:27:35.066Z,6.06
2024-04-21T21:30:02.831Z,6.06
2024-04-21T21:32:30.346Z,6.05
2024-04-21T21:34:57.898Z,6.04
2024-04-21T21:37:25.134Z,6.04
2024-04-21T21:39:52.633Z,6.04
2024-04-21T21:42:19.847Z,6.04
2024-04-21T21:44:47.303Z,6.02
2024-04-21T21:47:18.020Z,6.01
2024-04-21T21:49:45.814Z,6.02
2024-04-21T21:52:12.925Z,6.02
2024-04-21T21:54:40.735Z,6.02
2024-04-21T21:57:07.807Z,6.03
2024-04-21T21:59:35.328Z,6.03
2024-04-21T22:02:03.698Z,6.04
2024-04-21T22:04:31.865Z,6.04
2024-04-21T22:06:59.173Z,6.05
2024-04-21T22:09:26.841Z,6.04
2024-04-21T22:11:56.158Z,6.04
2024-04-21T22:14:23.748Z,6.04
2024-04-21T22:16:51.163Z,6.04
2024-04-21T22:19:18.838Z,6.04
2024-04-21T22:21:45.956Z,6.03
2024-04-21T22:24:13.624Z,6.02
2024-04-21T22:26:40.736Z,6.01
2024-04-21T22:29:08.579Z,6.01
2024-04-21T22:31:46.046Z,6.00
2024-04-21T22:34:20.923Z,6.00
2024-04-21T22:36:48.112Z,6.00
2024-04-21T22:39:15.706Z,6.00
2024-04-21T22:41:43.068Z,5.97
2024-04-21T22:44:10.643Z,5.96
2024-04-21T22:46:37.918Z,5.96
2024-04-21T22:49:05.564Z,5.95
2024-04-21T22:51:32.723Z,5.96
2024-04-21T22:54:00.219Z,5.95
2024-04-21T22:56:27.389Z,5.97
2024-04-21T22:58:54.946Z,5.97
2024-04-21T23:01:22.487Z,5.97
2024-04-21T23:03:50.197Z,5.97
2024-04-21T23:06:17.297Z,5.96
2024-04-21T23:08:45.111Z,5.95
2024-04-21T23:11:12.240Z,5.95
2024-04-21T23:13:40.036Z,5.93
2024-04-21T23:16:09.861Z,5.94
2024-04-21T23:18:37.603Z,5.93
2024-04-21T23:21:05.656Z,5.94
2024-04-21T23:23:33.362Z,5.93
2024-04-21T23:26:00.564Z,5.94
2024-04-21T23:28:28.747Z,5.93
2024-04-21T23:30:55.973Z,5.92
2024-04-21T23:33:23.624Z,5.90
2024-04-21T23:35:50.723Z,5.79
2024-04-21T23:38:18.348Z,5.82
2024-04-21T23:40:45.472Z,5.84
2024-04-21T23:43:13.215Z,5.87
2024-04-21T23:45:40.834Z,5.87
2024-04-21T23:48:08.702Z,5.81
2024-04-21T23:50:36.011Z,5.75
2024-04-21T23:53:03.722Z,5.79
2024-04-21T23:55:30.870Z,5.82
2024-04-21T23:57:58.532Z,5.83
